Time;durP1;ratioP1;P1;durP2;ratioP2;P2;SDS_P1;SDS_P2;PMS_P1;PMS_P2;Temp;Humidity;BMP_temperature;BMP_pressure;BME280_temperature;BME280_humidity;BME280_pressure;Samples;Min_cycle;Max_cycle;Signal;HPM_P1;HPM_P2
2022/08/20 00:00:00;;;;;;;;;;;;;;;;;;6266800;22;19926;-90
2022/08/20 00:02:28;;;;;;;;;;;;;;;;;;6238837;22;20295;-90
2022/08/20 00:04:57;;;;;;;;;;;;;;;;;;6268792;22;19919;-90
2022/08/20 00:07:24;;;;;;;;;;;;;;;;;;6265315;22;19938;-89
2022/08/20 00:09:50;;;;;;;;;;;;;;;;;;6242953;22;19926;-90
2022/08/20 00:12:17;;;;;;;;;;;;;;;;;;6241858;22;19919;-89
2022/08/20 00:14:44;;;;;;;;;;;;;;;;;;6240362;22;20336;-89
2022/08/20 00:17:11;;;;;;;;;;;;;;;;;;6267289;22;19922;-89
2022/08/20 00:19:38;;;;;;;;;;;;;;;;;;6266073;22;19919;-90
2022/08/20 00:22:05;;;;;;;;;;;;;;;;;;6268295;22;20404;-90
2022/08/20 00:24:33;;;;;;;;;;;;;;;;;;6240761;22;19925;-89
2022/08/20 00:27:09;;;;;;;;;;;;;;;;;;6297272;22;20327;-90
2022/08/20 00:29:36;;;;;;;;;;;;;;;;;;6264438;22;19994;-90
2022/08/20 00:32:04;;;;;;;;;;;;;;;;;;6268281;22;19960;-90
2022/08/20 00:34:30;;;;;;;;;;;;;;;;;;6268509;22;19922;-89
2022/08/20 00:36:57;;;;;;;;;;;;;;;;;;6270550;22;19915;-90
2022/08/20 00:39:24;;;;;;;;;;;;;;;;;;6240052;22;20243;-90
2022/08/20 00:41:50;;;;;;;;;;;;;;;;;;6268708;22;19919;-91
2022/08/20 00:44:17;;;;;;;;;;;;;;;;;;6269860;22;19940;-89
2022/08/20 00:46:45;;;;;;;;;;;;;;;;;;6266795;22;19982;-90
2022/08/20 00:49:12;;;;;;;;;;;;;;;;;;6242932;22;19918;-89
2022/08/20 00:51:40;;;;;;;;;;;;;;;;;;6240578;22;20381;-90
2022/08/20 00:54:08;;;;;;;;;;;;;;;;;;6266985;22;19922;-90
2022/08/20 00:56:37;;;;;;;;;;;;;;;;;;6267883;22;19925;-90
2022/08/20 00:59:04;;;;;;;;;;;;;;;;;;6242630;22;20395;-90
2022/08/20 01:01:33;;;;;;;;;;;;;;;;;;6267765;22;19925;-90
2022/08/20 01:04:00;;;;;;;;;;;;;;;;;;6267578;22;19938;-90
2022/08/20 01:06:27;;;;;;;;;;;;;;;;;;6264561;22;20397;-90
2022/08/20 01:08:54;;;;;;;;;;;;;;;;;;6243456;22;19990;-90
2022/08/20 01:11:29;;;;;;;;;;;;;;;;;;6242766;22;19919;-90
2022/08/20 01:13:58;;;;;;;;;;;;;;;;;;6268910;22;20013;-90
2022/08/20 01:16:25;;;;;;;;;;;;;;;;;;6238654;22;19938;-90
2022/08/20 01:18:56;;;;;;;;;;;;;;;;;;6267781;22;19989;-91
2022/08/20 01:21:27;;;;;;;;;;;;;;;;;;6292534;22;19919;-91
2022/08/20 01:23:54;;;;;;;;;;;;;;;;;;6243609;22;19922;-90
2022/08/20 01:26:21;;;;;;;;;;;;;;;;;;6296148;22;19921;-90
2022/08/20 01:28:49;;;;;;;;;;;;;;;;;;6241777;22;19919;-90
2022/08/20 01:31:16;;;;;;;;;;;;;;;;;;6265420;22;19926;-90
2022/08/20 01:33:46;;;;;;;;;;;;;;;;;;6263684;22;19972;-90
2022/08/20 01:36:14;;;;;;;;;;;;;;;;;;6264955;22;19919;-90
2022/08/20 01:38:41;;;;;;;;;;;;;;;;;;6265390;22;19919;-90
2022/08/20 01:41:08;;;;;;;;;;;;;;;;;;6270275;22;19922;-90
2022/08/20 01:43:49;;;;;;;;;;;;;;;;;;6211580;23;19920;-90
2022/08/20 01:46:15;;;;;;;;;;;;;;;;;;6179867;23;19950;-90
2022/08/20 01:48:42;;;;;;;;;;;;;;;;;;6178598;23;19920;-90
2022/08/20 01:51:09;;;;;;;;;;;;;;;;;;6205277;23;19920;-90
2022/08/20 01:53:36;;;;;;;;;;;;;;;;;;6179452;23;19915;-90
2022/08/20 01:56:02;;;;;;;;;;;;;;;;;;6180487;23;19919;-91
2022/08/20 01:58:28;;;;;;;;;;;;;;;;;;6205143;23;19975;-90
2022/08/20 02:00:56;;;;;;;;;;;;;;;;;;6206110;23;19924;-89
2022/08/20 02:03:22;;;;;;;;;;;;;;;;;;6179155;23;19920;-90
2022/08/20 02:05:48;;;;;;;;;;;;;;;;;;6208896;23;19947;-90
2022/08/20 02:08:15;;;;;;;;;;;;;;;;;;6183825;23;19973;-91
2022/08/20 02:10:45;;;;;;;;;;;;;;;;;;6178988;23;19990;-90
2022/08/20 02:13:12;;;;;;;;;;;;;;;;;;6207862;23;19919;-90
2022/08/20 02:15:39;;;;;;;;;;;;;;;;;;6231884;22;19915;-91
2022/08/20 02:18:07;;;;;;;;;;;;;;;;;;6244968;22;19919;-91
2022/08/20 02:20:34;;;;;;;;;;;;;;;;;;6241828;22;19919;-91
2022/08/20 02:23:04;;;;;;;;;;;;;;;;;;6270582;22;19915;-91
2022/08/20 02:25:43;;;;;;;;;;;;;;;;;;6293812;22;19919;-90
2022/08/20 02:28:09;;;;;;;;;;;;;;;;;;6270671;22;19919;-90
2022/08/20 02:30:37;;;;;;;;;;;;;;;;;;6267257;22;19922;-90
2022/08/20 02:33:04;;;;;;;;;;;;;;;;;;6297119;22;19926;-90
2022/08/20 02:35:31;;;;;;;;;;;;;;;;;;6268692;22;19918;-90
2022/08/20 02:37:58;;;;;;;;;;;;;;;;;;6269684;22;19919;-90
2022/08/20 02:40:28;;;;;;;;;;;;;;;;;;6240113;22;20487;-91
2022/08/20 02:42:56;;;;;;;;;;;;;;;;;;6242572;22;19971;-90
2022/08/20 02:45:42;;;;;;;;;;;;;;;;;;6208213;23;19947;-90
2022/08/20 02:48:19;;;;;;;;;;;;;;;;;;6232518;23;19962;-91
2022/08/20 02:50:55;;;;;;;;;;;;;;;;;;6209488;23;19974;-90
2022/08/20 02:53:21;;;;;;;;;;;;;;;;;;6206712;23;19969;-90
2022/08/20 02:55:49;;;;;;;;;;;;;;;;;;6181679;23;20345;-90
2022/08/20 02:58:16;;;;;;;;;;;;;;;;;;6232565;23;20375;-91
2022/08/20 03:00:43;;;;;;;;;;;;;;;;;;6180639;23;19920;-91
2022/08/20 03:03:10;;;;;;;;;;;;;;;;;;6183389;23;19924;-91
2022/08/20 03:05:38;;;;;;;;;;;;;;;;;;6205174;23;19926;-91
2022/08/20 03:08:05;;;;;;;;;;;;;;;;;;6181788;23;19923;-91
2022/08/20 03:10:33;;;;;;;;;;;;;;;;;;6205106;23;19987;-90
2022/08/20 03:13:01;;;;;;;;;;;;;;;;;;6184186;23;20305;-90
2022/08/20 03:15:38;;;;;;;;;;;;;;;;;;6160187;22;19927;-90
2022/08/20 03:18:22;;;;;;;;;;;;;;;;;;6203081;23;19926;-90
2022/08/20 03:20:51;;;;;;;;;;;;;;;;;;6176863;23;19920;-90
2022/08/20 03:23:18;;;;;;;;;;;;;;;;;;6152725;23;19919;-91
2022/08/20 03:25:55;;;;;;;;;;;;;;;;;;;;;
2022/08/20 03:28:22;;;;;;;;;;;;;;;;;;6176235;23;19920;-91
2022/08/20 03:30:50;;;;;;;;;;;;;;;;;;6178230;23;20289;-90
2022/08/20 03:33:19;;;;;;;;;;;;;;;;;;6153412;23;19916;-91
2022/08/20 03:35:47;;;;;;;;;;;;;;;;;;6168316;23;19920;-91
2022/08/20 03:38:14;;;;;;;;;;;;;;;;;;6177718;23;19916;-90
2022/08/20 03:40:41;;;;;;;;;;;;;;;;;;6169972;23;20366;-91
2022/08/20 03:43:11;;;;;;;;;;;;;;;;;;6173374;23;19920;-91
2022/08/20 03:45:38;;;;;;;;;;;;;;;;;;6144494;23;19916;-90
2022/08/20 03:48:11;;;;;;;;;;;;;;;;;;6171121;22;19926;-90
2022/08/20 03:50:40;;;;;;;;;;;;;;;;;;6237038;22;19958;-91
2022/08/20 03:53:11;;;;;;;;;;;;;;;;;;6240999;22;19946;-90
2022/08/20 03:55:46;;;;;;;;;;;;;;;;;;6188667;22;19926;-91
2022/08/20 03:58:18;;;;;;;;;;;;;;;;;;6240835;22;20335;-91
2022/08/20 04:01:03;;;;;;;;;;;;;;;;;;6264424;22;20010;-91
2022/08/20 04:03:30;;;;;;;;;;;;;;;;;;6209625;22;19919;-90
2022/08/20 04:05:57;;;;;;;;;;;;;;;;;;6211200;22;20018;-90
2022/08/20 04:08:43;;;;;;;;;;;;;;;;;;6239065;22;20410;-91
2022/08/20 04:11:09;;;;;;;;;;;;;;;;;;6214029;22;19915;-91
2022/08/20 04:13:46;;;;;;;;;;;;;;;;;;6264839;22;20328;-92
2022/08/20 04:16:16;;;;;;;;;;;;;;;;;;6212199;22;19919;-90
2022/08/20 04:18:43;;;;;;;;;;;;;;;;;;6210472;22;19953;-91
2022/08/20 04:21:29;;;;;;;;;;;;;;;;;;6240188;22;19945;-90
2022/08/20 04:23:55;;;;;;;;;;;;;;;;;;6238327;22;20351;-91
2022/08/20 04:26:23;;;;;;;;;;;;;;;;;;6211174;22;19919;-91
2022/08/20 04:28:51;;;;;;;;;;;;;;;;;;6238961;22;19926;-90
2022/08/20 04:31:33;;;;;;;;;;;;;;;;;;6262387;22;19923;-91
2022/08/20 04:34:09;;;;;;;;;;;;;;;;;;6238935;22;19922;-91
2022/08/20 04:36:55;;;;;;;;;;;;;;;;;;6175075;23;20532;-91
2022/08/20 04:39:36;;;;;;;;;;;;;;;;;;6139427;23;20051;-91
2022/08/20 04:42:03;;;;;;;;;;;;;;;;;;6133609;23;19959;-91
2022/08/20 04:44:30;;;;;;;;;;;;;;;;;;6119714;23;19920;-91
2022/08/20 04:46:57;;;;;;;;;;;;;;;;;;6147590;23;19920;-91
2022/08/20 04:49:25;;;;;;;;;;;;;;;;;;6142807;23;19955;-91
2022/08/20 04:51:51;;;;;;;;;;;;;;;;;;6146375;23;19923;-90
2022/08/20 04:54:18;;;;;;;;;;;;;;;;;;6118878;23;20366;-91
2022/08/20 04:56:44;;;;;;;;;;;;;;;;;;6119213;23;19970;-91
2022/08/20 04:59:11;;;;;;;;;;;;;;;;;;6123070;23;19951;-91
2022/08/20 05:01:42;;;;;;;;;;;;;;;;;;6141849;23;20490;-91
2022/08/20 05:04:09;;;;;;;;;;;;;;;;;;6120252;23;19920;-90
2022/08/20 05:06:37;;;;;;;;;;;;;;;;;;6118017;23;19966;-92
2022/08/20 05:09:06;;;;;;;;;;;;;;;;;;6202112;23;19951;-91
2022/08/20 05:11:34;;;;;;;;;;;;;;;;;;6147233;23;20579;-91
2022/08/20 05:14:01;;;;;;;;;;;;;;;;;;6177435;23;20341;-91
2022/08/20 05:16:28;;;;;;;;;;;;;;;;;;6172915;23;19990;-91
2022/08/20 05:18:57;;;;;;;;;;;;;;;;;;6175994;23;19916;-91
2022/08/20 05:21:38;;;;;;;;;;;;;;;;;;6165041;23;19920;-91
2022/08/20 05:24:05;;;;;;;;;;;;;;;;;;6149277;23;20259;-91
2022/08/20 05:26:32;;;;;;;;;;;;;;;;;;6148899;23;19920;-91
2022/08/20 05:29:01;;;;;;;;;;;;;;;;;;6175337;23;19916;-91
2022/08/20 05:31:27;;;;;;;;;;;;;;;;;;6173070;23;19919;-91
2022/08/20 05:34:00;;;;;;;;;;;;;;;;;;6174897;23;19966;-90
2022/08/20 05:36:27;;;;;;;;;;;;;;;;;;6172646;23;19929;-90
2022/08/20 05:38:55;;;;;;;;;;;;;;;;;;6149066;23;19920;-90
2022/08/20 05:41:22;;;;;;;;;;;;;;;;;;6184584;23;19924;-91
2022/08/20 05:44:02;;;;;;;;;;;;;;;;;;6169846;23;19962;-91
2022/08/20 05:46:30;;;;;;;;;;;;;;;;;;6141537;23;19920;-91
2022/08/20 05:48:56;;;;;;;;;;;;;;;;;;6172018;23;20448;-90
2022/08/20 05:51:23;;;;;;;;;;;;;;;;;;6111879;23;19920;-91
2022/08/20 05:53:49;;;;;;;;;;;;;;;;;;6173822;23;19919;-91
2022/08/20 05:56:16;;;;;;;;;;;;;;;;;;6175748;23;20352;-91
2022/08/20 05:58:42;;;;;;;;;;;;;;;;;;6173150;23;20015;-91
2022/08/20 06:01:09;;;;;;;;;;;;;;;;;;6151558;23;19970;-91
2022/08/20 06:06:23;;;;;;;;;;;;;;;;;;6169844;23;20424;-91
2022/08/20 06:08:49;;;;;;;;;;;;;;;;;;6174421;23;20436;-90
2022/08/20 06:11:15;;;;;;;;;;;;;;;;;;6151121;23;20023;-90
2022/08/20 06:13:42;;;;;;;;;;;;;;;;;;6197169;23;19920;-91
2022/08/20 06:16:10;;;;;;;;;;;;;;;;;;6234107;22;20248;-91
2022/08/20 06:18:36;;;;;;;;;;;;;;;;;;6234573;22;19927;-91
2022/08/20 06:21:03;;;;;;;;;;;;;;;;;;6237054;22;19919;-91
2022/08/20 06:23:29;;;;;;;;;;;;;;;;;;6211318;22;19919;-91
2022/08/20 06:25:55;;;;;;;;;;;;;;;;;;6213350;22;19969;-91
2022/08/20 06:28:21;;;;;;;;;;;;;;;;;;6238412;22;19919;-91
2022/08/20 06:30:48;;;;;;;;;;;;;;;;;;6211929;22;19919;-91
2022/08/20 06:33:15;;;;;;;;;;;;;;;;;;6206852;22;19929;-90
2022/08/20 06:35:43;;;;;;;;;;;;;;;;;;6208265;22;20905;-91
2022/08/20 06:38:17;;;;;;;;;;;;;;;;;;6260657;22;20286;-91
2022/08/20 06:40:45;;;;;;;;;;;;;;;;;;6232013;22;19923;-91
2022/08/20 06:43:11;;;;;;;;;;;;;;;;;;6242408;22;19923;-91
2022/08/20 06:45:38;;;;;;;;;;;;;;;;;;6242022;22;19925;-90
2022/08/20 06:48:05;;;;;;;;;;;;;;;;;;6267757;22;19930;-90
2022/08/20 06:50:37;;;;;;;;;;;;;;;;;;6240191;22;19929;-90
2022/08/20 06:53:05;;;;;;;;;;;;;;;;;;6244511;22;20047;-90
2022/08/20 06:55:32;;;;;;;;;;;;;;;;;;6241426;22;20232;-91
2022/08/20 06:58:00;;;;;;;;;;;;;;;;;;6240739;22;19919;-90
2022/08/20 07:00:26;;;;;;;;;;;;;;;;;;6236794;22;20293;-91
2022/08/20 07:02:52;;;;;;;;;;;;;;;;;;6267512;22;19919;-91
2022/08/20 07:05:18;;;;;;;;;;;;;;;;;;6243881;22;20323;-90
2022/08/20 07:07:45;;;;;;;;;;;;;;;;;;6242042;22;19989;-90
2022/08/20 07:10:13;;;;;;;;;;;;;;;;;;6265983;22;19919;-90
2022/08/20 07:12:45;;;;;;;;;;;;;;;;;;6291985;22;20600;-90
2022/08/20 07:15:14;;;;;;;;;;;;;;;;;;6270832;22;20568;-89
2022/08/20 07:17:41;;;;;;;;;;;;;;;;;;6240285;22;19989;-91
2022/08/20 07:20:08;;;;;;;;;;;;;;;;;;6243344;22;19973;-90
2022/08/20 07:22:35;;;;;;;;;;;;;;;;;;6241380;22;19927;-91
2022/08/20 07:25:02;;;;;;;;;;;;;;;;;;6268105;22;19926;-90
2022/08/20 07:27:28;;;;;;;;;;;;;;;;;;6265477;22;19919;-90
2022/08/20 07:32:40;;;;;;;;;;;;;;;;;;6264643;22;20100;-90
2022/08/20 07:35:07;;;;;;;;;;;;;;;;;;6244417;22;20008;-91
2022/08/20 07:37:34;;;;;;;;;;;;;;;;;;6241238;22;19919;-90
2022/08/20 07:40:01;;;;;;;;;;;;;;;;;;6243199;22;20266;-90
2022/08/20 07:42:28;;;;;;;;;;;;;;;;;;6238478;22;20324;-90
2022/08/20 07:44:58;;;;;;;;;;;;;;;;;;6268125;22;19992;-89
2022/08/20 07:47:25;;;;;;;;;;;;;;;;;;6236869;22;19993;-90
2022/08/20 07:49:52;;;;;;;;;;;;;;;;;;6267169;22;19915;-90
2022/08/20 07:52:22;;;;;;;;;;;;;;;;;;6270116;22;19957;-90
2022/08/20 07:54:48;;;;;;;;;;;;;;;;;;6243303;22;19923;-89
2022/08/20 07:57:16;;;;;;;;;;;;;;;;;;6238980;22;20377;-91
2022/08/20 07:59:47;;;;;;;;;;;;;;;;;;6244747;22;19923;-89
2022/08/20 08:02:15;;;;;;;;;;;;;;;;;;6242901;22;19946;-90
2022/08/20 08:04:41;;;;;;;;;;;;;;;;;;6240203;22;20926;-90
2022/08/20 08:07:17;;;;;;;;;;;;;;;;;;6239372;22;19919;-90
2022/08/20 08:09:44;;;;;;;;;;;;;;;;;;6240687;22;20800;-89
2022/08/20 08:12:12;;;;;;;;;;;;;;;;;;6273795;22;19919;-88
2022/08/20 08:14:39;;;;;;;;;;;;;;;;;;6242922;22;19926;-88
2022/08/20 08:17:07;;;;;;;;;;;;;;;;;;6268341;22;20363;-88
2022/08/20 08:19:37;;;;;;;;;;;;;;;;;;6242765;22;19923;-88
2022/08/20 08:22:04;;;;;;;;;;;;;;;;;;6269570;22;19914;-89
2022/08/20 08:24:30;;;;;;;;;;;;;;;;;;6266146;22;19926;-89
2022/08/20 08:26:58;;;;;;;;;;;;;;;;;;6240750;22;19942;-89
2022/08/20 08:29:25;;;;;;;;;;;;;;;;;;6265665;22;19923;-88
2022/08/20 08:31:52;;;;;;;;;;;;;;;;;;6264768;22;19925;-89
2022/08/20 08:34:18;;;;;;;;;;;;;;;;;;6242564;22;20089;-91
2022/08/20 08:36:50;;;;;;;;;;;;;;;;;;6270685;22;19925;-90
2022/08/20 08:39:21;;;;;;;;;;;;;;;;;;6269514;22;20443;-90
2022/08/20 08:41:48;;;;;;;;;;;;;;;;;;6267436;22;19919;-90
2022/08/20 08:44:20;;;;;;;;;;;;;;;;;;6271771;22;19921;-90
2022/08/20 08:46:48;;;;;;;;;;;;;;;;;;6241534;22;19915;-90
2022/08/20 08:49:15;;;;;;;;;;;;;;;;;;6270061;22;19923;-90
2022/08/20 08:51:42;;;;;;;;;;;;;;;;;;6242047;22;19926;-89
2022/08/20 08:54:09;;;;;;;;;;;;;;;;;;6243907;22;19914;-86
2022/08/20 08:56:37;;;;;;;;;;;;;;;;;;6291438;22;19933;-87
2022/08/20 08:59:04;;;;;;;;;;;;;;;;;;6263916;22;19915;-87
2022/08/20 09:01:31;;;;;;;;;;;;;;;;;;6265333;22;19978;-87
2022/08/20 09:03:58;;;;;;;;;;;;;;;;;;6267729;22;19982;-87
2022/08/20 09:06:27;;;;;;;;;;;;;;;;;;6261099;22;19929;-87
2022/08/20 09:08:52;;;;;;;;;;;;;;;;;;6267165;22;19989;-86
2022/08/20 09:11:23;;;;;;;;;;;;;;;;;;6293308;22;20377;-86
2022/08/20 09:13:49;;;;;;;;;;;;;;;;;;6293928;22;20527;-87
2022/08/20 09:16:31;;;;;;;;;;;;;;;;;;6192194;23;19919;-86
2022/08/20 09:19:07;;;;;;;;;;;;;;;;;;6191768;23;19923;-87
2022/08/20 09:21:46;;;;;;;;;;;;;;;;;;6193448;23;20564;-87
2022/08/20 09:24:12;;;;;;;;;;;;;;;;;;6171572;23;19915;-86
2022/08/20 09:26:48;;;;;;;;;;;;;;;;;;6169338;23;19930;-86
2022/08/20 09:29:15;;;;;;;;;;;;;;;;;;6168712;23;19924;-86
2022/08/20 09:31:43;;;;;;;;;;;;;;;;;;6193052;23;20408;-87
2022/08/20 09:34:23;;;;;;;;;;;;;;;;;;6137544;23;20655;-87
2022/08/20 09:36:49;;;;;;;;;;;;;;;;;;6139159;23;19928;-86
2022/08/20 09:39:17;;;;;;;;;;;;;;;;;;6109662;23;19928;-87
2022/08/20 09:41:44;;;;;;;;;;;;;;;;;;6132645;23;19936;-87
2022/08/20 09:44:14;;;;;;;;;;;;;;;;;;6132619;23;20016;-86
2022/08/20 09:46:41;;;;;;;;;;;;;;;;;;6131432;23;19955;-86
2022/08/20 09:49:07;;;;;;;;;;;;;;;;;;6139345;23;20657;-86
2022/08/20 09:51:48;;;;;;;;;;;;;;;;;;6105848;23;20867;-86
2022/08/20 09:54:15;;;;;;;;;;;;;;;;;;6111530;23;19921;-86
2022/08/20 09:56:41;;;;;;;;;;;;;;;;;;6058725;23;20340;-86
2022/08/20 09:59:14;;;;;;;;;;;;;;;;;;6081726;23;19964;-86
2022/08/20 10:01:41;;;;;;;;;;;;;;;;;;6056818;23;19924;-87
2022/08/20 10:04:07;;;;;;;;;;;;;;;;;;6087007;23;20310;-86
2022/08/20 10:06:34;;;;;;;;;;;;;;;;;;6081862;23;19924;-86
2022/08/20 10:09:01;;;;;;;;;;;;;;;;;;6077409;23;19921;-85
2022/08/20 10:11:29;;;;;;;;;;;;;;;;;;6135409;23;19924;-83
2022/08/20 10:13:56;;;;;;;;;;;;;;;;;;6166513;23;19923;-87
2022/08/20 10:16:38;;;;;;;;;;;;;;;;;;6193267;23;19927;-86
2022/08/20 10:19:04;;;;;;;;;;;;;;;;;;6171479;23;20149;-86
2022/08/20 10:21:30;;;;;;;;;;;;;;;;;;6144601;23;19916;-87
2022/08/20 10:23:58;;;;;;;;;;;;;;;;;;6232135;22;19919;-86
2022/08/20 10:26:25;;;;;;;;;;;;;;;;;;6257641;22;19923;-87
2022/08/20 10:28:51;;;;;;;;;;;;;;;;;;6209661;22;19919;-86
2022/08/20 10:31:18;;;;;;;;;;;;;;;;;;6233208;22;20641;-86
2022/08/20 10:33:45;;;;;;;;;;;;;;;;;;6206579;22;19923;-86
2022/08/20 10:36:12;;;;;;;;;;;;;;;;;;6230531;22;20308;-86
2022/08/20 10:38:40;;;;;;;;;;;;;;;;;;6229356;22;19994;-86
2022/08/20 10:41:06;;;;;;;;;;;;;;;;;;6234424;22;19927;-87
2022/08/20 10:43:46;;;;;;;;;;;;;;;;;;6284895;22;19919;-89
2022/08/20 10:46:32;;;;;;;;;;;;;;;;;;6270789;22;19917;-89
2022/08/20 10:49:00;;;;;;;;;;;;;;;;;;6243156;22;19972;-89
2022/08/20 10:51:35;;;;;;;;;;;;;;;;;;6290555;22;20298;-89
2022/08/20 10:54:03;;;;;;;;;;;;;;;;;;6269407;22;19914;-90
2022/08/20 10:56:29;;;;;;;;;;;;;;;;;;6267546;22;19954;-89
2022/08/20 10:58:56;;;;;;;;;;;;;;;;;;6269000;22;19989;-89
2022/08/20 11:01:24;;;;;;;;;;;;;;;;;;6240608;22;20342;-89
2022/08/20 11:03:51;;;;;;;;;;;;;;;;;;6241469;22;19915;-89
2022/08/20 11:06:17;;;;;;;;;;;;;;;;;;6297067;22;19925;-89
2022/08/20 11:08:44;;;;;;;;;;;;;;;;;;6266375;22;20248;-89
2022/08/20 11:11:11;;;;;;;;;;;;;;;;;;6269951;22;19919;-89
2022/08/20 11:13:38;;;;;;;;;;;;;;;;;;6242666;22;19925;-89
2022/08/20 11:16:06;;;;;;;;;;;;;;;;;;6269112;22;19922;-90
2022/08/20 11:21:26;;;;;;;;;;;;;;;;;;6229995;23;20006;-89
2022/08/20 11:23:53;;;;;;;;;;;;;;;;;;6207578;23;20058;-89
2022/08/20 11:26:24;;;;;;;;;;;;;;;;;;6204262;23;19923;-89
2022/08/20 11:28:50;;;;;;;;;;;;;;;;;;6182896;23;20030;-89
2022/08/20 11:31:16;;;;;;;;;;;;;;;;;;6204505;23;19928;-88
2022/08/20 11:33:44;;;;;;;;;;;;;;;;;;6175056;23;19930;-89
2022/08/20 11:36:11;;;;;;;;;;;;;;;;;;6231574;23;20283;-89
2022/08/20 11:38:47;;;;;;;;;;;;;;;;;;6204787;23;19947;-89
2022/08/20 11:41:28;;;;;;;;;;;;;;;;;;6138160;23;20015;-88
2022/08/20 11:43:55;;;;;;;;;;;;;;;;;;6139335;23;20439;-89
2022/08/20 11:46:21;;;;;;;;;;;;;;;;;;6137900;23;19928;-89
2022/08/20 12:00:54;;;;;;;;;;;;;;;;;;6023126;23;20008;-90
2022/08/20 12:03:22;;;;;;;;;;;;;;;;;;6054380;23;19921;-90
2022/08/20 12:05:48;;;;;;;;;;;;;;;;;;6054554;23;19918;-90
2022/08/20 12:08:15;;;;;;;;;;;;;;;;;;6053717;23;19926;-89
2022/08/20 12:10:41;;;;;;;;;;;;;;;;;;6051250;23;19957;-90
2022/08/20 12:13:07;;;;;;;;;;;;;;;;;;6101510;23;20061;-89
2022/08/20 12:15:34;;;;;;;;;;;;;;;;;;6089123;23;19992;-90
2022/08/20 12:21:28;;;;;;;;;;;;;;;;;;;;;
2022/08/20 12:41:09;;;;;;;;;;;;;;;;;;;;;
2022/08/20 12:57:18;;;;;;;;;;;;;;;;;;5812569;24;19925;-90
2022/08/20 13:03:36;;;;;;;;;;;;;;;;;;5880682;24;19919;-90
2022/08/20 13:40:48;;;;;;;;;;;;;;;;;;6303609;22;19933;-89
2022/08/20 13:43:14;;;;;;;;;;;;;;;;;;6270812;22;19928;-90
2022/08/20 13:53:06;;;;;;;;;;;;;;;;;;6162049;23;19919;-90
2022/08/20 13:55:39;;;;;;;;;;;;;;;;;;6306088;22;19964;-89
2022/08/20 13:58:16;;;;;;;;;;;;;;;;;;6325521;22;19926;-90
2022/08/20 14:00:46;;;;;;;;;;;;;;;;;;6272533;22;20085;-91
2022/08/20 14:03:20;;;;;;;;;;;;;;;;;;6273526;22;19954;-89
2022/08/20 14:06:02;;;;;;;;;;;;;;;;;;6226494;22;19951;-90
2022/08/20 14:18:13;;;;;;;;;;;;;;;;;;6176644;23;19920;-91
2022/08/20 14:21:22;;;;;;;;;;;;;;;;;;;;;
2022/08/20 14:23:54;;;;;;;;;;;;;;;;;;;;;
2022/08/20 14:26:26;;;;;;;;;;;;;;;;;;6085422;23;20053;-90
2022/08/20 14:29:00;;;;;;;;;;;;;;;;;;6085606;23;20350;-90
2022/08/20 14:31:37;;;;;;;;;;;;;;;;;;6105867;23;19943;-90
2022/08/20 14:34:17;;;;;;;;;;;;;;;;;;6145423;23;19963;-89
2022/08/20 14:36:58;;;;;;;;;;;;;;;;;;6146820;23;19962;-90
2022/08/20 14:39:24;;;;;;;;;;;;;;;;;;6171690;23;19927;-90
2022/08/20 14:41:50;;;;;;;;;;;;;;;;;;6146630;23;19936;-90
2022/08/20 14:44:16;;;;;;;;;;;;;;;;;;6202885;23;19919;-90
2022/08/20 14:46:42;;;;;;;;;;;;;;;;;;6180747;23;19930;-91
2022/08/20 14:49:08;;;;;;;;;;;;;;;;;;6233997;23;19923;-90
2022/08/20 14:51:34;;;;;;;;;;;;;;;;;;6202308;22;19975;-91
2022/08/20 14:54:00;;;;;;;;;;;;;;;;;;6265391;22;19919;-91
2022/08/20 14:56:26;;;;;;;;;;;;;;;;;;6243673;22;19993;-90
2022/08/20 14:58:55;;;;;;;;;;;;;;;;;;6271904;22;19919;-91
2022/08/20 15:01:21;;;;;;;;;;;;;;;;;;6245680;22;19922;-91
2022/08/20 15:03:47;;;;;;;;;;;;;;;;;;6271002;22;19922;-90
2022/08/20 15:06:13;;;;;;;;;;;;;;;;;;6268679;22;19915;-90
2022/08/20 15:08:38;;;;;;;;;;;;;;;;;;6267796;22;20362;-91
2022/08/20 15:11:06;;;;;;;;;;;;;;;;;;6262538;22;20287;-90
2022/08/20 15:19:43;;;;;;;;;;;;;;;;;;6145557;23;19964;-90
2022/08/20 15:22:12;;;;;;;;;;;;;;;;;;6147702;23;20281;-91
2022/08/20 15:24:38;;;;;;;;;;;;;;;;;;6191377;22;19938;-90
2022/08/20 15:27:04;;;;;;;;;;;;;;;;;;6263669;22;19962;-90
2022/08/20 15:29:30;;;;;;;;;;;;;;;;;;6229284;22;19919;-90
2022/08/20 15:54:02;;;;;;;;;;;;;;;;;;;;;
2022/08/20 15:57:12;;;;;;;;;;;;;;;;;;;;;
2022/08/20 16:12:37;;;;;;;;;;;;;;;;;;6030652;23;19967;-87
2022/08/20 16:17:58;;;;;;;;;;;;;;;;;;6261937;22;20219;-88
2022/08/20 16:29:38;;;;;;;;;;;;;;;;;;6140517;23;19921;-90
2022/08/20 16:32:11;;;;;;;;;;;;;;;;;;6132016;23;20350;-89
2022/08/20 16:34:39;;;;;;;;;;;;;;;;;;6185718;23;20414;-89
2022/08/20 16:37:16;;;;;;;;;;;;;;;;;;6185256;23;19919;-90
2022/08/20 16:39:56;;;;;;;;;;;;;;;;;;6175056;23;19942;-89
2022/08/20 16:58:27;;;;;;;;;;;;;;;;;;6059868;23;19925;-94
2022/08/20 17:01:19;;;;;;;;;;;;;;;;;;6037619;23;19989;-93
2022/08/20 17:13:04;;;;;;;;;;;;;;;;;;;;;
2022/08/20 17:15:56;;;;;;;;;;;;;;;;;;6301989;22;19977;-84
2022/08/20 17:21:34;;;;;;;;;;;;;;;;;;6305650;22;20292;-84
2022/08/20 17:28:01;;;;;;;;;;;;;;;;;;6160589;23;19924;-84
2022/08/20 17:30:46;;;;;;;;;;;;;;;;;;6260068;22;19914;-84
2022/08/20 17:36:31;;;;;;;;;;;;;;;;;;6105555;23;20394;-85
2022/08/20 17:42:18;;;;;;;;;;;;;;;;;;6184294;22;20314;-84
2022/08/20 17:45:04;;;;;;;;;;;;;;;;;;6249359;22;19928;-84
2022/08/20 17:47:34;;;;;;;;;;;;;;;;;;6225491;23;20237;-84
2022/08/20 17:53:23;;;;;;;;;;;;;;;;;;6108724;23;19921;-82
2022/08/20 17:56:15;;;;;;;;;;;;;;;;;;6147430;23;19919;-82
2022/08/20 17:59:07;;;;;;;;;;;;;;;;;;;;;
2022/08/20 18:15:53;;;;;;;;;;;;;;;;;;6273235;22;19923;-83
2022/08/20 19:08:28;;;;;;;;;;;;;;;;;;6219410;22;19951;-86
2022/08/20 19:10:54;;;;;;;;;;;;;;;;;;6295197;22;19922;-92
2022/08/20 19:13:23;;;;;;;;;;;;;;;;;;6282923;22;19926;-93
2022/08/20 19:15:49;;;;;;;;;;;;;;;;;;6274731;22;19924;-93
2022/08/20 19:18:21;;;;;;;;;;;;;;;;;;6298141;22;19919;-94
2022/08/20 19:20:48;;;;;;;;;;;;;;;;;;6268612;22;19919;-94
2022/08/20 19:23:17;;;;;;;;;;;;;;;;;;6278269;22;19950;-95
2022/08/20 19:25:43;;;;;;;;;;;;;;;;;;6285718;22;19925;-95
2022/08/20 19:28:12;;;;;;;;;;;;;;;;;;6284559;22;19937;-94
2022/08/20 19:30:47;;;;;;;;;;;;;;;;;;6313896;22;20220;-93
2022/08/20 19:33:13;;;;;;;;;;;;;;;;;;6288660;22;19906;-95
2022/08/20 19:35:43;;;;;;;;;;;;;;;;;;6321440;22;19903;-94
2022/08/20 19:38:14;;;;;;;;;;;;;;;;;;6306573;22;19950;-94
2022/08/20 19:40:40;;;;;;;;;;;;;;;;;;6288569;22;19925;-93
2022/08/20 19:43:06;;;;;;;;;;;;;;;;;;6289413;22;19930;-93
2022/08/20 19:45:32;;;;;;;;;;;;;;;;;;6271331;22;19915;-93
2022/08/20 19:47:59;;;;;;;;;;;;;;;;;;6297039;22;19926;-94
2022/08/20 19:50:25;;;;;;;;;;;;;;;;;;6285644;22;20318;-95
2022/08/20 19:52:54;;;;;;;;;;;;;;;;;;6311718;22;19925;-94
2022/08/20 19:55:26;;;;;;;;;;;;;;;;;;6296229;22;19918;-94
2022/08/20 19:57:52;;;;;;;;;;;;;;;;;;6294021;22;19994;-94
2022/08/20 20:00:25;;;;;;;;;;;;;;;;;;6286534;22;19949;-93
2022/08/20 20:12:23;;;;;;;;;;;;;;;;;;;;;
2022/08/20 20:16:05;;;;;;;;;;;;;;;;;;6304689;22;20339;-95
2022/08/20 20:21:02;;;;;;;;;;;;;;;;;;6228186;22;19954;-93
2022/08/20 20:29:57;;;;;;;;;;;;;;;;;;6274884;22;19923;-95
2022/08/20 20:32:32;;;;;;;;;;;;;;;;;;6227307;22;20302;-94
2022/08/20 20:35:27;;;;;;;;;;;;;;;;;;;;;
2022/08/20 20:37:50;;;;;;;;;;;;;;;;;;6170882;23;20038;-94
2022/08/20 20:52:59;;;;;;;;;;;;;;;;;;;;;
2022/08/20 20:58:52;;;;;;;;;;;;;;;;;;6110581;23;19920;-89
2022/08/20 21:01:18;;;;;;;;;;;;;;;;;;6086664;23;19921;-89
2022/08/20 21:03:46;;;;;;;;;;;;;;;;;;6150103;23;19924;-88
2022/08/20 21:06:15;;;;;;;;;;;;;;;;;;6170732;23;19935;-88
2022/08/20 21:08:42;;;;;;;;;;;;;;;;;;6169614;23;19919;-89
2022/08/20 21:11:08;;;;;;;;;;;;;;;;;;6253308;22;20236;-89
2022/08/20 21:13:34;;;;;;;;;;;;;;;;;;6220377;22;19926;-88
2022/08/20 21:15:59;;;;;;;;;;;;;;;;;;6259736;22;20386;-89
2022/08/20 21:18:25;;;;;;;;;;;;;;;;;;6252672;22;20249;-89
2022/08/20 21:20:54;;;;;;;;;;;;;;;;;;6258322;22;19969;-88
2022/08/20 21:23:23;;;;;;;;;;;;;;;;;;6259620;22;19926;-88
2022/08/20 21:25:49;;;;;;;;;;;;;;;;;;6228035;22;19916;-89
2022/08/20 21:28:15;;;;;;;;;;;;;;;;;;6258124;22;19915;-89
2022/08/20 21:30:41;;;;;;;;;;;;;;;;;;6247673;22;20082;-88
2022/08/20 21:33:07;;;;;;;;;;;;;;;;;;6258979;22;19919;-88
2022/08/20 21:38:27;;;;;;;;;;;;;;;;;;6254538;22;19930;-89
2022/08/20 21:40:53;;;;;;;;;;;;;;;;;;6222492;22;19977;-88
2022/08/20 21:43:19;;;;;;;;;;;;;;;;;;6255568;22;19930;-88
2022/08/20 21:45:44;;;;;;;;;;;;;;;;;;6257725;22;20324;-89
2022/08/20 21:48:10;;;;;;;;;;;;;;;;;;6255921;22;19919;-89
2022/08/20 21:50:36;;;;;;;;;;;;;;;;;;6246768;22;19919;-89
2022/08/20 21:53:08;;;;;;;;;;;;;;;;;;6260214;22;20049;-89
2022/08/20 21:55:34;;;;;;;;;;;;;;;;;;6260874;22;19957;-89
2022/08/20 21:58:00;;;;;;;;;;;;;;;;;;6258408;22;19919;-89
2022/08/20 22:00:26;;;;;;;;;;;;;;;;;;6254873;22;19926;-89
2022/08/20 22:02:52;;;;;;;;;;;;;;;;;;6262099;22;19919;-88
2022/08/20 22:05:18;;;;;;;;;;;;;;;;;;6232720;22;19941;-88
2022/08/20 22:07:44;;;;;;;;;;;;;;;;;;6247259;22;19947;-88
2022/08/20 22:10:10;;;;;;;;;;;;;;;;;;6259992;22;19920;-89
2022/08/20 22:12:36;;;;;;;;;;;;;;;;;;6244281;22;19923;-88
2022/08/20 22:15:02;;;;;;;;;;;;;;;;;;6259357;22;19993;-88